Time;durP1;ratioP1;P1;durP2;ratioP2;P2;SDS_P1;SDS_P2;PMS_P1;PMS_P2;Temp;Humidity;BMP_temperature;BMP_pressure;BME280_temperature;BME280_humidity;BME280_pressure;Samples;Min_cycle;Max_cycle;Signal;HPM_P1;HPM_P2
2021/04/20 00:01:38;;;;;;;13.43;12.03;;;;;;;;;;5082903;28;20234;-62
2021/04/20 00:04:13;;;;;;;12.10;10.77;;;;;;;;;;5076593;28;20203;-61
2021/04/20 00:06:42;;;;;;;13.90;12.50;;;;;;;;;;5075191;28;20266;-64
2021/04/20 00:09:09;;;;;;;12.40;10.97;;;;;;;;;;5083973;28;20750;-61
2021/04/20 00:11:38;;;;;;;12.80;11.00;;;;;;;;;;5082986;28;20222;-61
2021/04/20 00:14:05;;;;;;;12.57;11.27;;;;;;;;;;5092781;28;20669;-61
2021/04/20 00:16:31;;;;;;;12.53;11.33;;;;;;;;;;5091772;28;20194;-61
2021/04/20 00:18:57;;;;;;;12.50;11.20;;;;;;;;;;5090696;28;20190;-61
2021/04/20 00:21:23;;;;;;;12.33;11.10;;;;;;;;;;5074024;28;20191;-61
2021/04/20 00:23:49;;;;;;;14.83;12.10;;;;;;;;;;5074414;28;20200;-65
2021/04/20 00:26:15;;;;;;;12.40;11.13;;;;;;;;;;5093899;28;20386;-62
2021/04/20 00:28:41;;;;;;;12.37;11.13;;;;;;;;;;5073772;28;20176;-61
2021/04/20 00:31:07;;;;;;;12.30;11.10;;;;;;;;;;5091822;28;20211;-61
2021/04/20 00:33:33;;;;;;;11.80;10.33;;;;;;;;;;5075200;28;20164;-61
2021/04/20 00:35:59;;;;;;;13.27;11.03;;;;;;;;;;5079584;28;20538;-61
2021/04/20 00:38:25;;;;;;;12.30;11.07;;;;;;;;;;5054921;28;20181;-64
2021/04/20 00:40:51;;;;;;;13.93;12.43;;;;;;;;;;5079530;28;20187;-62
2021/04/20 00:43:18;;;;;;;12.37;11.17;;;;;;;;;;5072553;28;20263;-61
2021/04/20 00:45:44;;;;;;;11.83;10.70;;;;;;;;;;5086037;28;20168;-61
2021/04/20 00:48:10;;;;;;;11.90;10.60;;;;;;;;;;5081978;28;20199;-61
2021/04/20 00:50:38;;;;;;;12.27;10.97;;;;;;;;;;5080788;28;20192;-62
2021/04/20 00:53:04;;;;;;;12.53;11.33;;;;;;;;;;5092157;28;20186;-62
2021/04/20 00:55:31;;;;;;;11.90;10.67;;;;;;;;;;5086691;28;20184;-64
2021/04/20 00:57:57;;;;;;;12.53;11.33;;;;;;;;;;5086550;28;20180;-61
2021/04/20 01:00:28;;;;;;;11.90;10.40;;;;;;;;;;5065086;28;20202;-62
2021/04/20 01:02:54;;;;;;;12.50;11.27;;;;;;;;;;5091396;28;20262;-61
2021/04/20 01:05:22;;;;;;;13.20;11.80;;;;;;;;;;5068538;28;20188;-64
2021/04/20 01:07:49;;;;;;;13.10;11.80;;;;;;;;;;5054107;28;20180;-62
2021/04/20 01:10:15;;;;;;;11.93;10.63;;;;;;;;;;5072428;28;20188;-61
2021/04/20 01:12:42;;;;;;;13.53;12.13;;;;;;;;;;5064207;28;20224;-62
2021/04/20 01:15:10;;;;;;;12.17;10.97;;;;;;;;;;5068403;28;20176;-62
2021/04/20 01:17:36;;;;;;;12.57;11.17;;;;;;;;;;5075580;28;20184;-64
2021/04/20 01:20:05;;;;;;;12.00;10.73;;;;;;;;;;5084854;28;20176;-62
2021/04/20 01:22:33;;;;;;;11.27;10.03;;;;;;;;;;5084925;28;20242;-62
2021/04/20 01:25:05;;;;;;;14.40;10.10;;;;;;;;;;5072109;28;20203;-61
2021/04/20 01:27:31;;;;;;;12.77;11.47;;;;;;;;;;5092334;28;20225;-62
2021/04/20 01:29:58;;;;;;;12.37;11.17;;;;;;;;;;5089851;28;20187;-64
2021/04/20 01:32:25;;;;;;;11.40;10.30;;;;;;;;;;5053464;28;20224;-62
2021/04/20 01:34:51;;;;;;;12.37;11.23;;;;;;;;;;5086515;28;20183;-64
2021/04/20 01:37:17;;;;;;;12.23;11.03;;;;;;;;;;5090933;28;20184;-62
2021/04/20 01:39:44;;;;;;;11.70;10.30;;;;;;;;;;5068054;28;20215;-62
2021/04/20 01:42:11;;;;;;;12.20;10.87;;;;;;;;;;5088724;28;20261;-62
2021/04/20 01:44:37;;;;;;;13.30;12.00;;;;;;;;;;5085590;28;20474;-62
2021/04/20 01:47:04;;;;;;;11.17;10.07;;;;;;;;;;5089031;28;20175;-62
2021/04/20 01:49:30;;;;;;;12.17;10.83;;;;;;;;;;5078840;28;20200;-62
2021/04/20 01:51:56;;;;;;;11.87;10.67;;;;;;;;;;5067458;28;20283;-62
2021/04/20 01:54:22;;;;;;;12.20;11.00;;;;;;;;;;5076579;28;20239;-62
2021/04/20 01:56:49;;;;;;;12.57;10.53;;;;;;;;;;5070670;28;20581;-62
2021/04/20 01:59:16;;;;;;;10.63;9.63;;;;;;;;;;5088862;28;20180;-61
2021/04/20 02:01:42;;;;;;;10.53;9.50;;;;;;;;;;5086201;28;20183;-61
2021/04/20 02:04:09;;;;;;;12.50;10.50;;;;;;;;;;5087265;28;20760;-61
2021/04/20 02:06:35;;;;;;;12.80;10.50;;;;;;;;;;5086529;28;20254;-61
2021/04/20 02:09:02;;;;;;;11.57;10.43;;;;;;;;;;5068643;28;20207;-64
2021/04/20 02:11:28;;;;;;;11.33;9.87;;;;;;;;;;5090652;28;20178;-67
2021/04/20 02:13:54;;;;;;;10.93;9.83;;;;;;;;;;5088740;28;20183;-61
2021/04/20 02:16:21;;;;;;;11.17;9.93;;;;;;;;;;5090628;28;20176;-61
2021/04/20 02:18:48;;;;;;;11.10;9.83;;;;;;;;;;5066285;28;20185;-61
2021/04/20 02:21:14;;;;;;;12.33;10.37;;;;;;;;;;5075534;28;20173;-64
2021/04/20 02:23:41;;;;;;;10.73;9.63;;;;;;;;;;5084049;28;20196;-61
2021/04/20 02:26:11;;;;;;;11.53;10.33;;;;;;;;;;5090115;28;20213;-62
2021/04/20 02:28:38;;;;;;;11.00;9.90;;;;;;;;;;5089403;28;20179;-61
2021/04/20 02:31:06;;;;;;;11.47;10.27;;;;;;;;;;5089842;28;20179;-61
2021/04/20 02:33:32;;;;;;;11.80;10.63;;;;;;;;;;5081975;28;20531;-62
2021/04/20 02:35:59;;;;;;;11.00;9.90;;;;;;;;;;5081172;28;20297;-61
2021/04/20 02:38:25;;;;;;;11.37;9.93;;;;;;;;;;5078165;28;20200;-62
2021/04/20 02:40:55;;;;;;;11.17;10.03;;;;;;;;;;5089687;28;20192;-63
2021/04/20 02:43:22;;;;;;;11.17;9.83;;;;;;;;;;5066709;28;20261;-63
2021/04/20 02:45:50;;;;;;;12.17;10.17;;;;;;;;;;5079736;28;20631;-62
2021/04/20 02:48:16;;;;;;;11.80;10.23;;;;;;;;;;5090342;28;20562;-61
2021/04/20 02:50:43;;;;;;;11.63;10.53;;;;;;;;;;5080037;28;20199;-60
2021/04/20 02:53:09;;;;;;;12.43;10.70;;;;;;;;;;5090476;28;20202;-61
2021/04/20 02:55:35;;;;;;;11.33;9.77;;;;;;;;;;5085778;28;20176;-60
2021/04/20 02:58:03;;;;;;;11.07;9.97;;;;;;;;;;5073202;28;20560;-60
2021/04/20 03:00:29;;;;;;;10.27;9.20;;;;;;;;;;5077121;28;20176;-60
2021/04/20 03:02:59;;;;;;;10.60;9.53;;;;;;;;;;5072483;28;20172;-61
2021/04/20 03:05:27;;;;;;;10.47;9.40;;;;;;;;;;5085258;28;20184;-61
2021/04/20 03:07:53;;;;;;;10.17;9.17;;;;;;;;;;5079117;28;20183;-61
2021/04/20 03:10:20;;;;;;;11.70;9.73;;;;;;;;;;5085616;28;20184;-61
2021/04/20 03:12:46;;;;;;;11.83;10.60;;;;;;;;;;5088633;28;20180;-61
2021/04/20 03:15:14;;;;;;;11.43;10.10;;;;;;;;;;5089447;28;20191;-61
2021/04/20 03:17:40;;;;;;;10.77;9.67;;;;;;;;;;5088025;28;20271;-61
2021/04/20 03:20:10;;;;;;;11.67;10.10;;;;;;;;;;5089003;28;20188;-61
2021/04/20 03:22:37;;;;;;;11.27;9.13;;;;;;;;;;5089419;28;20187;-61
2021/04/20 03:25:06;;;;;;;13.23;10.53;;;;;;;;;;5071199;28;20207;-61
2021/04/20 03:27:32;;;;;;;10.77;9.67;;;;;;;;;;5071101;28;20571;-63
2021/04/20 03:29:59;;;;;;;13.33;11.00;;;;;;;;;;5089445;28;20187;-62
2021/04/20 03:32:25;;;;;;;11.20;10.10;;;;;;;;;;5075599;28;20693;-61
2021/04/20 03:35:02;;;;;;;11.37;9.63;;;;;;;;;;5076799;28;20179;-60
2021/04/20 03:37:32;;;;;;;10.93;9.30;;;;;;;;;;5088695;28;20186;-62
2021/04/20 03:40:00;;;;;;;10.97;8.67;;;;;;;;;;5089864;28;20199;-61
2021/04/20 03:42:32;;;;;;;10.60;9.60;;;;;;;;;;5089610;28;20516;-61
2021/04/20 03:45:01;;;;;;;10.87;9.33;;;;;;;;;;5086666;28;20287;-62
2021/04/20 03:47:38;;;;;;;11.63;9.30;;;;;;;;;;5090608;28;20182;-61
2021/04/20 03:50:15;;;;;;;11.00;9.90;;;;;;;;;;5080272;28;20196;-61
2021/04/20 03:52:45;;;;;;;11.37;9.40;;;;;;;;;;5082174;28;20301;-61
2021/04/20 03:55:13;;;;;;;10.27;9.17;;;;;;;;;;5086849;28;20186;-61
2021/04/20 03:57:40;;;;;;;10.40;9.33;;;;;;;;;;5090313;28;20188;-61
2021/04/20 04:00:07;;;;;;;9.83;8.90;;;;;;;;;;5083856;28;20212;-61
2021/04/20 04:02:36;;;;;;;12.37;9.47;;;;;;;;;;5089464;28;20176;-60
2021/04/20 04:05:03;;;;;;;9.80;8.47;;;;;;;;;;5081589;28;20246;-61
2021/04/20 04:07:31;;;;;;;12.33;10.40;;;;;;;;;;5088230;28;20186;-61
2021/04/20 04:09:57;;;;;;;10.60;9.40;;;;;;;;;;5087907;28;20665;-60
2021/04/20 04:12:24;;;;;;;11.17;10.03;;;;;;;;;;5084962;28;20607;-61
2021/04/20 04:14:50;;;;;;;10.43;9.23;;;;;;;;;;5068429;28;20669;-61
2021/04/20 04:17:19;;;;;;;12.47;9.57;;;;;;;;;;5084533;28;20184;-61
2021/04/20 04:19:46;;;;;;;11.10;9.83;;;;;;;;;;5080847;28;20234;-61
2021/04/20 04:22:13;;;;;;;10.43;9.33;;;;;;;;;;5091057;28;20690;-62
2021/04/20 04:24:47;;;;;;;10.10;9.07;;;;;;;;;;5090857;28;20199;-61
2021/04/20 04:27:15;;;;;;;10.80;9.80;;;;;;;;;;5092040;28;20607;-61
2021/04/20 04:29:42;;;;;;;10.47;9.37;;;;;;;;;;5070415;28;20179;-61
2021/04/20 04:32:12;;;;;;;10.27;9.07;;;;;;;;;;5086867;28;20227;-62
2021/04/20 04:34:40;;;;;;;10.63;9.10;;;;;;;;;;5088355;28;20701;-61
2021/04/20 04:37:06;;;;;;;10.23;8.83;;;;;;;;;;5086688;28;20194;-61
2021/04/20 04:39:34;;;;;;;10.67;9.30;;;;;;;;;;5063426;28;20180;-62
2021/04/20 04:42:00;;;;;;;10.93;9.83;;;;;;;;;;5071951;28;20312;-61
2021/04/20 04:44:26;;;;;;;10.43;9.43;;;;;;;;;;5090990;28;20199;-61
2021/04/20 04:46:52;;;;;;;9.60;8.33;;;;;;;;;;5077888;28;20602;-61
2021/04/20 04:49:18;;;;;;;12.07;10.43;;;;;;;;;;5076196;28;20283;-61
2021/04/20 04:51:47;;;;;;;10.63;8.90;;;;;;;;;;5087443;28;20164;-60
2021/04/20 04:54:14;;;;;;;10.43;9.20;;;;;;;;;;5091130;28;20184;-61
2021/04/20 04:56:41;;;;;;;11.13;9.87;;;;;;;;;;5068070;28;20274;-60
2021/04/20 04:59:08;;;;;;;10.97;9.20;;;;;;;;;;5076456;28;20223;-61
2021/04/20 05:01:36;;;;;;;11.30;9.10;;;;;;;;;;5069215;28;20546;-61
2021/04/20 05:04:09;;;;;;;11.50;9.10;;;;;;;;;;5091220;28;20638;-61
2021/04/20 05:06:39;;;;;;;10.30;9.20;;;;;;;;;;5082663;28;20165;-61
2021/04/20 05:09:08;;;;;;;12.23;9.40;;;;;;;;;;5072195;28;20218;-61
2021/04/20 05:11:36;;;;;;;10.37;9.13;;;;;;;;;;5087670;28;20618;-61
2021/04/20 05:14:02;;;;;;;11.50;8.83;;;;;;;;;;5091752;28;20191;-61
2021/04/20 05:16:28;;;;;;;10.00;8.87;;;;;;;;;;5091285;28;20183;-61
2021/04/20 05:18:54;;;;;;;10.30;8.60;;;;;;;;;;5067609;28;20233;-61
2021/04/20 05:21:22;;;;;;;11.50;9.33;;;;;;;;;;5085282;28;20176;-62
2021/04/20 05:23:48;;;;;;;9.73;8.73;;;;;;;;;;5091929;28;20724;-60
2021/04/20 05:26:14;;;;;;;10.43;9.33;;;;;;;;;;5091880;28;20176;-60
2021/04/20 05:28:41;;;;;;;10.10;9.10;;;;;;;;;;5092331;28;20164;-60
2021/04/20 05:31:08;;;;;;;9.60;8.70;;;;;;;;;;5082549;28;20216;-60
2021/04/20 05:33:34;;;;;;;10.20;8.57;;;;;;;;;;5060015;28;20187;-60
2021/04/20 05:36:04;;;;;;;9.50;8.50;;;;;;;;;;5077432;28;20534;-60
2021/04/20 05:38:30;;;;;;;11.80;9.00;;;;;;;;;;5090332;28;20175;-60
2021/04/20 05:40:56;;;;;;;10.17;9.17;;;;;;;;;;5083123;28;20214;-61
2021/04/20 05:43:22;;;;;;;10.13;8.33;;;;;;;;;;5089915;28;20187;-60
2021/04/20 05:45:48;;;;;;;10.20;9.10;;;;;;;;;;5082168;28;20176;-63
2021/04/20 05:48:14;;;;;;;12.63;9.27;;;;;;;;;;5088079;28;20199;-61
2021/04/20 05:50:41;;;;;;;10.60;9.50;;;;;;;;;;5079050;28;20192;-60
2021/04/20 05:53:10;;;;;;;9.43;8.43;;;;;;;;;;5072533;28;20171;-61
2021/04/20 05:55:37;;;;;;;9.50;8.47;;;;;;;;;;5071889;28;20217;-61
2021/04/20 05:58:04;;;;;;;13.47;9.03;;;;;;;;;;5091123;28;20663;-61
2021/04/20 06:00:30;;;;;;;9.70;8.40;;;;;;;;;;5084669;28;20192;-60
2021/04/20 06:02:57;;;;;;;10.50;8.77;;;;;;;;;;5091216;28;20217;-60
2021/04/20 06:05:23;;;;;;;9.53;8.37;;;;;;;;;;5071732;28;20213;-61
2021/04/20 06:07:51;;;;;;;11.33;8.60;;;;;;;;;;5074875;28;20191;-60
2021/04/20 06:10:17;;;;;;;11.00;9.77;;;;;;;;;;5076073;28;20230;-61
2021/04/20 06:12:44;;;;;;;11.23;9.47;;;;;;;;;;5069224;28;20180;-60
2021/04/20 06:15:10;;;;;;;12.30;9.43;;;;;;;;;;5078435;28;20184;-60
2021/04/20 06:17:39;;;;;;;12.47;8.93;;;;;;;;;;5077372;28;20602;-60
2021/04/20 06:20:07;;;;;;;10.70;9.60;;;;;;;;;;5074012;28;20266;-60
2021/04/20 06:22:34;;;;;;;11.03;9.03;;;;;;;;;;5071497;28;20291;-60
2021/04/20 06:25:00;;;;;;;9.77;8.77;;;;;;;;;;5070559;28;20223;-60
2021/04/20 06:27:27;;;;;;;9.53;8.43;;;;;;;;;;5080511;28;20191;-60
2021/04/20 06:29:53;;;;;;;10.13;9.03;;;;;;;;;;5090434;28;20167;-60
2021/04/20 06:32:19;;;;;;;9.63;8.60;;;;;;;;;;5080329;28;20345;-60
2021/04/20 06:34:45;;;;;;;10.70;8.60;;;;;;;;;;5075542;28;20198;-61
2021/04/20 06:37:11;;;;;;;10.00;8.47;;;;;;;;;;5087263;28;20630;-61
2021/04/20 06:39:38;;;;;;;10.67;8.90;;;;;;;;;;5071739;28;20184;-61
2021/04/20 06:42:08;;;;;;;10.23;9.13;;;;;;;;;;5090202;28;20176;-61
2021/04/20 06:44:34;;;;;;;10.47;8.83;;;;;;;;;;5072025;28;20200;-63
2021/04/20 06:47:03;;;;;;;9.90;8.57;;;;;;;;;;5085435;28;20172;-61
2021/04/20 06:49:31;;;;;;;11.13;9.43;;;;;;;;;;5082305;28;20682;-62
2021/04/20 06:51:58;;;;;;;11.13;9.50;;;;;;;;;;5082158;28;20753;-61
2021/04/20 06:54:29;;;;;;;10.73;9.03;;;;;;;;;;5082618;28;20194;-62
2021/04/20 06:57:12;;;;;;;11.43;9.53;;;;;;;;;;5068320;28;20180;-60
2021/04/20 06:59:48;;;;;;;9.43;8.43;;;;;;;;;;5084443;28;20187;-60
2021/04/20 07:02:30;;;;;;;11.50;9.47;;;;;;;;;;5062489;28;20188;-60
2021/04/20 07:05:00;;;;;;;9.83;8.70;;;;;;;;;;5082385;28;20211;-61
2021/04/20 07:07:27;;;;;;;10.93;9.30;;;;;;;;;;5081414;28;20203;-60
2021/04/20 07:09:57;;;;;;;11.33;9.00;;;;;;;;;;5081406;28;20180;-60
2021/04/20 07:12:24;;;;;;;9.47;8.47;;;;;;;;;;5063887;28;20184;-60
2021/04/20 07:14:51;;;;;;;10.93;8.67;;;;;;;;;;5089790;28;20187;-62
2021/04/20 07:17:25;;;;;;;11.90;10.00;;;;;;;;;;5066578;28;20211;-60
2021/04/20 07:20:06;;;;;;;12.00;9.73;;;;;;;;;;5089879;28;20545;-60
2021/04/20 07:22:47;;;;;;;10.20;9.03;;;;;;;;;;5089813;28;20184;-61
2021/04/20 07:25:32;;;;;;;10.57;9.47;;;;;;;;;;5089647;28;20646;-60
2021/04/20 07:28:04;;;;;;;12.00;9.53;;;;;;;;;;5074148;28;20172;-61
2021/04/20 07:30:50;;;;;;;15.03;10.13;;;;;;;;;;5084024;28;20183;-62
2021/04/20 07:33:34;;;;;;;11.90;10.07;;;;;;;;;;5093928;28;20170;-60
2021/04/20 07:36:14;;;;;;;13.67;10.53;;;;;;;;;;5072162;28;20518;-60
2021/04/20 07:38:44;;;;;;;12.47;10.10;;;;;;;;;;5088857;28;20187;-62
2021/04/20 07:41:19;;;;;;;12.50;10.83;;;;;;;;;;5093474;28;20184;-60
2021/04/20 07:43:51;;;;;;;12.27;10.53;;;;;;;;;;5091101;28;20757;-60
2021/04/20 07:46:23;;;;;;;12.67;10.50;;;;;;;;;;5090576;28;20164;-59
2021/04/20 07:48:55;;;;;;;12.30;10.20;;;;;;;;;;5079766;28;20627;-62
2021/04/20 07:51:21;;;;;;;12.03;10.50;;;;;;;;;;5081799;28;20230;-60
2021/04/20 07:54:03;;;;;;;11.47;10.27;;;;;;;;;;5090474;28;20179;-60
2021/04/20 07:56:36;;;;;;;12.43;10.80;;;;;;;;;;5073438;28;20187;-60
2021/04/20 07:59:09;;;;;;;14.43;11.30;;;;;;;;;;5078682;28;20176;-60
2021/04/20 08:01:42;;;;;;;13.47;10.97;;;;;;;;;;5074696;28;20237;-60
2021/04/20 08:04:11;;;;;;;13.27;10.93;;;;;;;;;;5091642;28;20237;-60
2021/04/20 08:06:38;;;;;;;13.63;10.30;;;;;;;;;;5086998;28;20172;-61
2021/04/20 08:09:08;;;;;;;10.50;9.20;;;;;;;;;;5086755;28;20180;-60
2021/04/20 08:11:43;;;;;;;12.63;10.00;;;;;;;;;;5077229;28;20183;-61
2021/04/20 08:14:25;;;;;;;13.00;10.10;;;;;;;;;;5070460;28;20211;-61
2021/04/20 08:17:07;;;;;;;11.00;9.80;;;;;;;;;;5085987;28;20241;-61
2021/04/20 08:19:41;;;;;;;14.23;11.33;;;;;;;;;;5070878;28;20175;-60
2021/04/20 08:22:08;;;;;;;14.13;11.83;;;;;;;;;;5072874;28;20561;-60
2021/04/20 08:24:46;;;;;;;13.23;10.70;;;;;;;;;;5083219;28;20203;-59
2021/04/20 08:27:26;;;;;;;12.67;10.63;;;;;;;;;;5074146;28;20176;-60
2021/04/20 08:29:53;;;;;;;11.73;10.10;;;;;;;;;;5087027;28;20601;-60
2021/04/20 08:32:21;;;;;;;12.23;10.20;;;;;;;;;;5072772;28;20221;-60
2021/04/20 08:34:52;;;;;;;12.17;10.37;;;;;;;;;;5074467;28;20196;-60
2021/04/20 08:37:30;;;;;;;12.90;10.77;;;;;;;;;;5089074;28;20631;-60
2021/04/20 08:40:14;;;;;;;11.50;9.37;;;;;;;;;;5077190;28;20180;-62
2021/04/20 08:43:00;;;;;;;13.20;10.27;;;;;;;;;;5065119;28;20547;-60
2021/04/20 08:45:32;;;;;;;12.37;10.23;;;;;;;;;;5084502;28;20212;-60
2021/04/20 08:48:03;;;;;;;13.93;10.13;;;;;;;;;;5090447;28;20211;-60
2021/04/20 08:50:31;;;;;;;11.57;10.23;;;;;;;;;;5087908;28;20191;-60
2021/04/20 08:53:16;;;;;;;12.60;10.20;;;;;;;;;;5084973;28;20176;-60
2021/04/20 08:55:53;;;;;;;11.10;9.83;;;;;;;;;;5092013;28;20180;-56
2021/04/20 08:58:25;;;;;;;10.27;9.10;;;;;;;;;;5091886;28;20176;-58
2021/04/20 09:00:57;;;;;;;10.60;9.47;;;;;;;;;;5067027;28;20207;-59
2021/04/20 09:03:29;;;;;;;12.00;10.17;;;;;;;;;;5082080;28;20176;-59
2021/04/20 09:05:57;;;;;;;10.37;9.23;;;;;;;;;;5087078;28;20262;-60
2021/04/20 09:08:39;;;;;;;10.87;9.80;;;;;;;;;;5091661;28;20250;-59
2021/04/20 09:11:10;;;;;;;10.87;9.40;;;;;;;;;;5072662;28;20183;-59
2021/04/20 09:13:58;;;;;;;12.00;10.80;;;;;;;;;;5089824;28;20828;-59
2021/04/20 09:16:31;;;;;;;10.87;9.77;;;;;;;;;;5085139;28;20164;-59
2021/04/20 09:18:58;;;;;;;9.83;8.83;;;;;;;;;;5086529;28;20263;-59
2021/04/20 09:22:03;;;;;;;11.87;10.03;;;;;;;;;;5086105;28;20171;-59
2021/04/20 09:24:36;;;;;;;11.20;9.70;;;;;;;;;;4989349;28;20203;-59
2021/04/20 09:27:14;;;;;;;10.40;8.77;;;;;;;;;;4976742;28;20183;-59
2021/04/20 09:29:43;;;;;;;10.27;8.33;;;;;;;;;;5021796;28;20188;-58
2021/04/20 09:32:17;;;;;;;9.40;8.40;;;;;;;;;;5090144;28;20223;-59
2021/04/20 09:34:44;;;;;;;10.13;9.03;;;;;;;;;;5086313;28;20176;-59
2021/04/20 09:37:10;;;;;;;11.93;9.20;;;;;;;;;;5090046;28;20171;-58
2021/04/20 09:39:38;;;;;;;11.90;10.00;;;;;;;;;;5085361;28;21022;-60
2021/04/20 09:42:06;;;;;;;9.93;8.60;;;;;;;;;;5070796;28;20226;-59
2021/04/20 09:44:42;;;;;;;10.37;9.27;;;;;;;;;;5062957;28;20252;-59
2021/04/20 09:47:12;;;;;;;11.50;9.20;;;;;;;;;;5071245;28;20180;-59
2021/04/20 09:49:51;;;;;;;10.53;9.37;;;;;;;;;;5085258;28;20198;-59
2021/04/20 09:52:18;;;;;;;10.13;9.03;;;;;;;;;;5085530;28;20173;-59
2021/04/20 09:54:53;;;;;;;9.30;8.40;;;;;;;;;;5083295;28;20183;-59
2021/04/20 09:57:20;;;;;;;9.67;8.67;;;;;;;;;;5087294;28;20179;-60
2021/04/20 09:59:54;;;;;;;10.37;9.37;;;;;;;;;;5083698;28;20324;-61
2021/04/20 10:02:23;;;;;;;10.47;9.20;;;;;;;;;;5072558;28;20188;-59
2021/04/20 10:04:53;;;;;;;8.77;7.87;;;;;;;;;;5069683;28;20278;-61
2021/04/20 10:07:22;;;;;;;11.30;8.83;;;;;;;;;;5066618;28;20176;-59
2021/04/20 10:09:55;;;;;;;9.40;8.40;;;;;;;;;;5087451;28;20622;-59
2021/04/20 10:12:41;;;;;;;9.93;8.70;;;;;;;;;;5090034;28;20214;-59
2021/04/20 10:15:25;;;;;;;8.73;7.83;;;;;;;;;;5077307;28;20203;-60
2021/04/20 10:17:57;;;;;;;11.50;9.73;;;;;;;;;;5062686;28;20199;-58
2021/04/20 10:20:30;;;;;;;14.60;10.40;;;;;;;;;;5087676;28;20233;-58
2021/04/20 10:23:10;;;;;;;11.90;10.03;;;;;;;;;;5082071;28;20294;-62
2021/04/20 10:25:38;;;;;;;10.73;9.63;;;;;;;;;;5078474;28;20266;-60
2021/04/20 10:28:16;;;;;;;11.00;9.90;;;;;;;;;;5088681;28;20179;-61
2021/04/20 10:30:44;;;;;;;12.83;10.03;;;;;;;;;;5089835;28;20225;-56
2021/04/20 10:33:11;;;;;;;12.27;9.77;;;;;;;;;;5088649;28;20298;-63
2021/04/20 10:35:38;;;;;;;10.37;9.10;;;;;;;;;;5080604;28;20198;-61
2021/04/20 10:38:11;;;;;;;9.90;8.83;;;;;;;;;;5072196;28;20237;-60
2021/04/20 10:40:37;;;;;;;10.50;9.50;;;;;;;;;;5083343;28;20184;-62
2021/04/20 10:43:13;;;;;;;11.87;9.33;;;;;;;;;;5090588;28;20309;-62
2021/04/20 10:45:41;;;;;;;10.67;9.60;;;;;;;;;;5087443;28;20208;-60
2021/04/20 10:48:09;;;;;;;11.13;9.73;;;;;;;;;;5078437;28;20234;-60
2021/04/20 10:50:36;;;;;;;10.23;8.83;;;;;;;;;;5082220;28;20194;-57
2021/04/20 10:53:18;;;;;;;13.97;10.03;;;;;;;;;;5087781;28;20178;-59
2021/04/20 10:55:49;;;;;;;11.87;10.67;;;;;;;;;;5066996;28;20196;-60
2021/04/20 10:58:20;;;;;;;11.33;9.97;;;;;;;;;;5061326;28;20179;-60
2021/04/20 11:00:48;;;;;;;10.13;9.07;;;;;;;;;;5071884;28;20599;-61
2021/04/20 11:03:14;;;;;;;10.67;8.93;;;;;;;;;;5074467;28;20529;-60
2021/04/20 11:05:47;;;;;;;9.73;8.73;;;;;;;;;;5089733;28;20211;-60
2021/04/20 11:08:21;;;;;;;10.40;9.17;;;;;;;;;;5078201;28;20238;-61
2021/04/20 11:10:47;;;;;;;10.43;8.73;;;;;;;;;;5065290;28;20175;-61
2021/04/20 11:13:14;;;;;;;9.63;8.73;;;;;;;;;;5067804;28;20253;-61
2021/04/20 11:15:40;;;;;;;10.50;8.87;;;;;;;;;;5077446;28;20726;-62
2021/04/20 11:18:13;;;;;;;13.20;9.17;;;;;;;;;;5087876;28;20183;-59
2021/04/20 11:20:43;;;;;;;10.90;9.77;;;;;;;;;;5064970;28;20240;-59
2021/04/20 11:23:10;;;;;;;10.97;9.87;;;;;;;;;;5055088;28;20241;-60
2021/04/20 11:25:38;;;;;;;12.13;10.33;;;;;;;;;;5077630;28;20274;-59
2021/04/20 11:28:09;;;;;;;11.73;10.33;;;;;;;;;;5058008;28;20222;-61
2021/04/20 11:30:37;;;;;;;13.73;11.20;;;;;;;;;;5067093;28;20167;-60
2021/04/20 11:33:10;;;;;;;12.00;10.73;;;;;;;;;;5085078;28;20543;-61
2021/04/20 11:35:41;;;;;;;12.47;10.53;;;;;;;;;;5086805;28;20192;-60
2021/04/20 11:38:07;;;;;;;14.43;11.33;;;;;;;;;;5069709;28;20590;-60
2021/04/20 11:40:42;;;;;;;11.37;10.10;;;;;;;;;;5061751;28;20184;-61
2021/04/20 11:43:12;;;;;;;10.70;9.70;;;;;;;;;;5089527;28;20262;-62
2021/04/20 11:45:40;;;;;;;11.60;10.40;;;;;;;;;;5085554;28;20651;-61
2021/04/20 11:48:16;;;;;;;10.47;9.37;;;;;;;;;;5060069;28;20230;-63
2021/04/20 11:50:58;;;;;;;10.17;9.10;;;;;;;;;;5084192;28;20685;-62
2021/04/20 11:53:26;;;;;;;11.30;10.20;;;;;;;;;;5079824;28;20428;-62
2021/04/20 11:56:02;;;;;;;11.80;10.13;;;;;;;;;;5079903;28;20228;-62
2021/04/20 11:58:32;;;;;;;12.23;10.57;;;;;;;;;;5083532;28;20168;-62
2021/04/20 12:01:01;;;;;;;13.60;10.23;;;;;;;;;;5082256;28;20564;-62
2021/04/20 12:03:28;;;;;;;12.67;10.40;;;;;;;;;;5069283;28;20561;-62
2021/04/20 12:05:56;;;;;;;13.07;10.37;;;;;;;;;;5081586;28;20168;-62
2021/04/20 12:08:34;;;;;;;11.60;10.37;;;;;;;;;;5062389;28;20176;-62
2021/04/20 12:11:00;;;;;;;12.17;10.70;;;;;;;;;;5088437;28;20190;-64
2021/04/20 12:13:29;;;;;;;14.33;11.37;;;;;;;;;;5088283;28;20183;-62
2021/04/20 12:16:02;;;;;;;12.10;10.90;;;;;;;;;;5087457;28;20187;-63
2021/04/20 12:18:29;;;;;;;14.00;10.43;;;;;;;;;;5084085;28;20680;-62
2021/04/20 12:20:56;;;;;;;12.43;9.93;;;;;;;;;;5085775;28;20191;-62
2021/04/20 12:23:23;;;;;;;11.43;10.23;;;;;;;;;;5081110;28;20177;-62
2021/04/20 12:25:50;;;;;;;13.07;10.60;;;;;;;;;;5053364;28;20216;-62
2021/04/20 12:28:17;;;;;;;11.70;10.50;;;;;;;;;;5089350;28;20188;-62
2021/04/20 12:30:47;;;;;;;12.93;11.63;;;;;;;;;;5092443;28;20175;-62
2021/04/20 12:33:25;;;;;;;11.57;10.13;;;;;;;;;;5091211;28;20184;-62
2021/04/20 12:35:52;;;;;;;11.87;10.20;;;;;;;;;;5077031;28;20173;-61
2021/04/20 12:38:20;;;;;;;13.40;12.10;;;;;;;;;;5078364;28;20406;-62
2021/04/20 12:40:50;;;;;;;12.77;11.47;;;;;;;;;;5081777;28;20184;-61
2021/04/20 12:43:19;;;;;;;13.77;11.23;;;;;;;;;;5091619;28;20178;-62
2021/04/20 12:45:45;;;;;;;12.17;10.93;;;;;;;;;;5091529;28;20241;-62
2021/04/20 12:48:11;;;;;;;12.00;10.80;;;;;;;;;;5091811;28;20961;-62
2021/04/20 12:50:42;;;;;;;12.40;10.30;;;;;;;;;;5088563;28;20282;-63
2021/04/20 12:53:10;;;;;;;12.60;9.90;;;;;;;;;;5086742;28;20523;-62
2021/04/20 12:55:39;;;;;;;11.90;10.00;;;;;;;;;;5065524;28;20193;-62
2021/04/20 12:58:06;;;;;;;12.23;9.77;;;;;;;;;;5091887;28;20654;-62
2021/04/20 13:00:34;;;;;;;10.53;9.47;;;;;;;;;;5091985;28;20179;-62
2021/04/20 13:03:00;;;;;;;10.73;9.63;;;;;;;;;;5089428;28;20664;-62
2021/04/20 13:05:38;;;;;;;11.20;10.10;;;;;;;;;;5077075;28;20203;-62
2021/04/20 13:08:14;;;;;;;10.67;9.57;;;;;;;;;;5053301;28;20270;-61
2021/04/20 13:10:42;;;;;;;14.97;9.73;;;;;;;;;;5080525;28;20196;-61
2021/04/20 13:13:10;;;;;;;12.50;10.07;;;;;;;;;;5091718;28;20180;-61
2021/04/20 13:15:37;;;;;;;15.70;9.30;;;;;;;;;;5090656;28;20187;-62
2021/04/20 13:18:11;;;;;;;11.93;9.97;;;;;;;;;;5089523;28;20193;-61
2021/04/20 13:20:38;;;;;;;12.23;8.83;;;;;;;;;;5088737;28;20222;-61
2021/04/20 13:23:19;;;;;;;10.93;9.60;;;;;;;;;;5080612;28;20191;-62
2021/04/20 13:25:53;;;;;;;10.40;8.67;;;;;;;;;;5079334;28;20199;-61
2021/04/20 13:28:32;;;;;;;9.67;8.47;;;;;;;;;;5087178;28;20172;-61
2021/04/20 13:31:03;;;;;;;10.33;9.33;;;;;;;;;;5089492;28;20190;-61
2021/04/20 13:33:30;;;;;;;11.93;9.47;;;;;;;;;;5089158;28;20164;-61
2021/04/20 13:35:57;;;;;;;10.03;9.00;;;;;;;;;;5071667;28;20172;-61
2021/04/20 13:38:25;;;;;;;12.50;8.77;;;;;;;;;;5089616;28;20176;-61
2021/04/20 13:40:51;;;;;;;9.80;8.77;;;;;;;;;;5089275;28;20168;-61
2021/04/20 13:43:18;;;;;;;10.80;9.17;;;;;;;;;;5082238;28;20172;-61
2021/04/20 13:45:47;;;;;;;11.83;10.50;;;;;;;;;;5084201;28;20204;-62
2021/04/20 13:48:20;;;;;;;13.03;11.73;;;;;;;;;;5083299;28;20176;-60
2021/04/20 13:50:46;;;;;;;16.77;13.17;;;;;;;;;;5093218;28;20258;-61
2021/04/20 13:53:13;;;;;;;13.87;11.13;;;;;;;;;;5093105;28;20226;-62
2021/04/20 13:55:40;;;;;;;14.70;12.23;;;;;;;;;;5082032;28;20187;-62
2021/04/20 13:58:12;;;;;;;14.73;12.17;;;;;;;;;;5094858;28;20180;-62
2021/04/20 14:00:39;;;;;;;15.10;12.37;;;;;;;;;;5092813;28;20657;-62
2021/04/20 14:03:06;;;;;;;16.67;13.40;;;;;;;;;;5091281;28;20603;-62
2021/04/20 14:05:36;;;;;;;15.07;11.40;;;;;;;;;;5090264;28;20533;-62
2021/04/20 14:08:05;;;;;;;16.60;12.23;;;;;;;;;;5089940;28;20704;-60
2021/04/20 14:10:32;;;;;;;14.17;11.17;;;;;;;;;;5062542;28;20207;-59
2021/04/20 14:12:59;;;;;;;14.07;11.80;;;;;;;;;;5090729;28;20175;-62
2021/04/20 14:15:27;;;;;;;16.40;12.97;;;;;;;;;;5084575;28;20183;-60
2021/04/20 14:18:04;;;;;;;13.00;11.30;;;;;;;;;;5083472;28;20195;-60
2021/04/20 14:20:34;;;;;;;13.37;11.50;;;;;;;;;;5088703;28;20184;-61
2021/04/20 14:23:01;;;;;;;14.17;11.27;;;;;;;;;;5086104;28;20622;-61
2021/04/20 14:25:34;;;;;;;14.03;11.63;;;;;;;;;;5083479;28;20257;-61
2021/04/20 14:28:00;;;;;;;12.70;11.30;;;;;;;;;;5089694;28;20176;-62
2021/04/20 14:30:27;;;;;;;13.93;11.40;;;;;;;;;;5087689;28;20551;-60
2021/04/20 14:32:54;;;;;;;13.47;11.07;;;;;;;;;;5084346;28;20220;-60
2021/04/20 14:35:25;;;;;;;11.53;10.13;;;;;;;;;;5079935;28;20654;-61
2021/04/20 14:37:52;;;;;;;13.13;11.50;;;;;;;;;;5058817;28;20184;-60
2021/04/20 14:40:18;;;;;;;12.17;10.87;;;;;;;;;;5073872;28;20622;-62